sensor_id;sensor_type;location;lat;lon;timestamp;P1;durP1;ratioP1;P2;durP2;ratioP2
42092;SDS011;28974;50.316;18.960;2023-07-13T00:00:21;10.95;;;6.55;;
42092;SDS011;28974;50.316;18.960;2023-07-13T00:12:23;13.35;;;6.35;;
42092;SDS011;28974;50.316;18.960;2023-07-13T00:24:24;11.90;;;5.85;;
42092;SDS011;28974;50.316;18.960;2023-07-13T00:36:24;8.75;;;5.25;;
42092;SDS011;28974;50.316;18.960;2023-07-13T00:48:26;15.70;;;7.15;;
42092;SDS011;28974;50.316;18.960;2023-07-13T01:00:27;14.95;;;7.43;;
42092;SDS011;28974;50.316;18.960;2023-07-13T01:12:29;14.57;;;8.05;;
42092;SDS011;28974;50.316;18.960;2023-07-13T01:24:31;16.65;;;8.57;;
42092;SDS011;28974;50.316;18.960;2023-07-13T01:36:31;22.83;;;7.80;;
42092;SDS011;28974;50.316;18.960;2023-07-13T01:48:33;15.00;;;8.05;;
42092;SDS011;28974;50.316;18.960;2023-07-13T02:00:34;8.77;;;5.25;;
42092;SDS011;28974;50.316;18.960;2023-07-13T02:12:36;6.57;;;4.63;;
42092;SDS011;28974;50.316;18.960;2023-07-13T02:24:36;11.98;;;6.22;;
42092;SDS011;28974;50.316;18.960;2023-07-13T02:36:39;11.90;;;7.25;;
42092;SDS011;28974;50.316;18.960;2023-07-13T02:48:40;11.10;;;6.87;;
42092;SDS011;28974;50.316;18.960;2023-07-13T03:00:40;21.45;;;7.93;;
42092;SDS011;28974;50.316;18.960;2023-07-13T03:12:42;21.65;;;10.10;;
42092;SDS011;28974;50.316;18.960;2023-07-13T03:24:49;15.82;;;8.38;;
42092;SDS011;28974;50.316;18.960;2023-07-13T03:36:50;16.27;;;7.03;;
42092;SDS011;28974;50.316;18.960;2023-07-13T03:48:50;19.02;;;8.57;;
42092;SDS011;28974;50.316;18.960;2023-07-13T04:00:51;17.20;;;8.30;;
42092;SDS011;28974;50.316;18.960;2023-07-13T04:12:52;15.70;;;7.95;;
42092;SDS011;28974;50.316;18.960;2023-07-13T04:24:52;18.55;;;9.20;;
42092;SDS011;28974;50.316;18.960;2023-07-13T04:36:52;12.80;;;8.10;;
42092;SDS011;28974;50.316;18.960;2023-07-13T04:48:53;15.32;;;8.43;;
42092;SDS011;28974;50.316;18.960;2023-07-13T05:00:58;23.75;;;10.23;;
42092;SDS011;28974;50.316;18.960;2023-07-13T05:12:59;27.45;;;11.13;;
42092;SDS011;28974;50.316;18.960;2023-07-13T05:24:59;20.45;;;8.73;;
42092;SDS011;28974;50.316;18.960;2023-07-13T05:37:00;15.52;;;7.97;;
42092;SDS011;28974;50.316;18.960;2023-07-13T05:49:00;15.45;;;7.75;;
42092;SDS011;28974;50.316;18.960;2023-07-13T06:01:02;23.92;;;9.02;;
42092;SDS011;28974;50.316;18.960;2023-07-13T06:13:03;31.88;;;12.82;;
42092;SDS011;28974;50.316;18.960;2023-07-13T06:25:03;19.60;;;10.68;;
42092;SDS011;28974;50.316;18.960;2023-07-13T06:37:04;21.13;;;12.52;;
42092;SDS011;28974;50.316;18.960;2023-07-13T06:49:04;35.15;;;22.30;;
42092;SDS011;28974;50.316;18.960;2023-07-13T07:01:05;43.03;;;19.17;;
42092;SDS011;28974;50.316;18.960;2023-07-13T07:13:05;14.98;;;8.93;;
42092;SDS011;28974;50.316;18.960;2023-07-13T07:25:06;20.73;;;7.50;;
42092;SDS011;28974;50.316;18.960;2023-07-13T07:37:06;17.20;;;7.10;;
42092;SDS011;28974;50.316;18.960;2023-07-13T07:49:07;19.75;;;8.63;;
42092;SDS011;28974;50.316;18.960;2023-07-13T08:01:07;28.77;;;11.65;;
42092;SDS011;28974;50.316;18.960;2023-07-13T08:13:07;20.92;;;9.10;;
42092;SDS011;28974;50.316;18.960;2023-07-13T08:25:08;13.30;;;8.23;;
42092;SDS011;28974;50.316;18.960;2023-07-13T08:37:08;11.70;;;7.05;;
42092;SDS011;28974;50.316;18.960;2023-07-13T08:49:11;13.67;;;7.80;;
42092;SDS011;28974;50.316;18.960;2023-07-13T09:01:16;16.45;;;7.20;;
42092;SDS011;28974;50.316;18.960;2023-07-13T09:25:24;16.27;;;9.38;;
42092;SDS011;28974;50.316;18.960;2023-07-13T09:49:35;13.68;;;7.40;;
42092;SDS011;28974;50.316;18.960;2023-07-13T10:01:37;11.25;;;3.70;;
42092;SDS011;28974;50.316;18.960;2023-07-13T10:13:40;9.25;;;3.17;;
42092;SDS011;28974;50.316;18.960;2023-07-13T10:25:42;7.25;;;3.67;;
42092;SDS011;28974;50.316;18.960;2023-07-13T10:37:48;5.97;;;3.55;;
42092;SDS011;28974;50.316;18.960;2023-07-13T10:49:50;12.75;;;5.05;;
42092;SDS011;28974;50.316;18.960;2023-07-13T11:14:02;10.70;;;5.50;;
42092;SDS011;28974;50.316;18.960;2023-07-13T11:26:36;12.15;;;5.95;;
42092;SDS011;28974;50.316;18.960;2023-07-13T11:50:31;9.30;;;5.15;;
42092;SDS011;28974;50.316;18.960;2023-07-13T12:02:32;18.85;;;5.97;;
42092;SDS011;28974;50.316;18.960;2023-07-13T12:14:33;8.90;;;4.00;;
42092;SDS011;28974;50.316;18.960;2023-07-13T12:26:37;8.48;;;4.68;;
42092;SDS011;28974;50.316;18.960;2023-07-13T12:38:38;11.63;;;4.32;;
42092;SDS011;28974;50.316;18.960;2023-07-13T12:50:40;11.17;;;4.87;;
42092;SDS011;28974;50.316;18.960;2023-07-13T13:02:41;6.25;;;4.07;;
42092;SDS011;28974;50.316;18.960;2023-07-13T13:14:41;13.07;;;6.20;;
42092;SDS011;28974;50.316;18.960;2023-07-13T13:26:42;15.23;;;4.75;;
42092;SDS011;28974;50.316;18.960;2023-07-13T13:38:43;4.38;;;3.55;;
42092;SDS011;28974;50.316;18.960;2023-07-13T13:50:44;6.80;;;3.67;;
42092;SDS011;28974;50.316;18.960;2023-07-13T14:02:45;5.22;;;2.60;;
42092;SDS011;28974;50.316;18.960;2023-07-13T14:14:51;8.25;;;3.72;;
42092;SDS011;28974;50.316;18.960;2023-07-13T14:26:52;7.50;;;4.85;;
42092;SDS011;28974;50.316;18.960;2023-07-13T14:38:53;6.70;;;4.70;;
42092;SDS011;28974;50.316;18.960;2023-07-13T14:50:55;9.73;;;5.43;;
42092;SDS011;28974;50.316;18.960;2023-07-13T15:02:56;8.68;;;4.82;;
42092;SDS011;28974;50.316;18.960;2023-07-13T15:14:58;5.18;;;4.68;;
42092;SDS011;28974;50.316;18.960;2023-07-13T15:26:58;7.43;;;5.05;;
42092;SDS011;28974;50.316;18.960;2023-07-13T15:38:59;6.25;;;5.18;;
42092;SDS011;28974;50.316;18.960;2023-07-13T15:51:02;8.57;;;4.00;;
42092;SDS011;28974;50.316;18.960;2023-07-13T16:03:03;8.63;;;4.13;;
42092;SDS011;28974;50.316;18.960;2023-07-13T16:15:08;5.13;;;3.58;;
42092;SDS011;28974;50.316;18.960;2023-07-13T16:27:12;4.10;;;2.75;;
42092;SDS011;28974;50.316;18.960;2023-07-13T16:39:13;3.90;;;3.00;;
42092;SDS011;28974;50.316;18.960;2023-07-13T16:51:14;6.28;;;3.15;;
42092;SDS011;28974;50.316;18.960;2023-07-13T17:03:15;6.53;;;3.70;;
42092;SDS011;28974;50.316;18.960;2023-07-13T17:15:18;4.53;;;3.38;;
42092;SDS011;28974;50.316;18.960;2023-07-13T17:27:18;5.35;;;3.15;;
42092;SDS011;28974;50.316;18.960;2023-07-13T17:39:19;3.95;;;3.28;;
42092;SDS011;28974;50.316;18.960;2023-07-13T17:51:21;11.95;;;4.68;;
42092;SDS011;28974;50.316;18.960;2023-07-13T18:03:26;5.80;;;4.50;;
42092;SDS011;28974;50.316;18.960;2023-07-13T18:15:34;9.15;;;4.75;;
42092;SDS011;28974;50.316;18.960;2023-07-13T18:27:34;9.65;;;5.32;;
42092;SDS011;28974;50.316;18.960;2023-07-13T18:39:35;7.60;;;4.82;;
42092;SDS011;28974;50.316;18.960;2023-07-13T18:51:35;9.68;;;4.70;;
42092;SDS011;28974;50.316;18.960;2023-07-13T19:03:35;9.73;;;5.60;;
42092;SDS011;28974;50.316;18.960;2023-07-13T19:15:36;13.45;;;5.53;;
42092;SDS011;28974;50.316;18.960;2023-07-13T19:27:37;22.35;;;8.27;;
42092;SDS011;28974;50.316;18.960;2023-07-13T19:39:38;13.40;;;6.70;;
42092;SDS011;28974;50.316;18.960;2023-07-13T19:51:39;22.83;;;8.03;;
42092;SDS011;28974;50.316;18.960;2023-07-13T20:03:41;14.35;;;8.00;;
42092;SDS011;28974;50.316;18.960;2023-07-13T20:15:41;14.23;;;8.18;;
42092;SDS011;28974;50.316;18.960;2023-07-13T20:27:42;14.27;;;7.80;;
42092;SDS011;28974;50.316;18.960;2023-07-13T20:39:42;16.55;;;8.55;;
42092;SDS011;28974;50.316;18.960;2023-07-13T20:51:42;14.93;;;9.68;;
42092;SDS011;28974;50.316;18.960;2023-07-13T21:03:45;21.85;;;9.95;;
42092;SDS011;28974;50.316;18.960;2023-07-13T21:15:46;48.30;;;32.85;;
42092;SDS011;28974;50.316;18.960;2023-07-13T21:27:54;15.73;;;9.25;;
42092;SDS011;28974;50.316;18.960;2023-07-13T21:39:55;16.02;;;10.07;;
42092;SDS011;28974;50.316;18.960;2023-07-13T21:51:55;25.42;;;13.60;;
42092;SDS011;28974;50.316;18.960;2023-07-13T22:03:56;19.33;;;11.35;;
42092;SDS011;28974;50.316;18.960;2023-07-13T22:15:57;22.85;;;13.15;;
42092;SDS011;28974;50.316;18.960;2023-07-13T22:27:57;22.25;;;13.48;;
42092;SDS011;28974;50.316;18.960;2023-07-13T22:39:57;17.10;;;12.77;;
42092;SDS011;28974;50.316;18.960;2023-07-13T22:51:59;17.35;;;11.55;;
42092;SDS011;28974;50.316;18.960;2023-07-13T23:04:00;19.75;;;12.80;;
42092;SDS011;28974;50.316;18.960;2023-07-13T23:16:00;26.42;;;16.23;;
42092;SDS011;28974;50.316;18.960;2023-07-13T23:28:01;24.58;;;16.73;;
42092;SDS011;28974;50.316;18.960;2023-07-13T23:40:04;31.02;;;17.67;;
42092;SDS011;28974;50.316;18.960;2023-07-13T23:52:18;25.38;;;14.90;;
